Terminal Aerodrome Forecast
Issued by NWS Mt. Holly, NJ

Home | Current Version | Previous Version | Text Only | Print | Product List | Glossary On
Versions: 1 2 3 4 5 6 7 8 9 10 11 12 13
000
FTUS41 KPHI 011700 RRA
TAFACY
TAF
KACY 011742Z 0118/0218 17006KT P6SM FEW030 SCT050
      TEMPO 0118/0122 6SM -SHRA BKN035
     FM020000 15005KT P6SM OVC050
     FM020300 08004KT 5SM -RA BR OVC030
     FM021000 05008KT 5SM -RA BR OVC020=

USA.gov is the U.S. government's official web portal to all federal, state and local government web resources and services.